createdAt,value
2022-12-11T00:00:00.633Z,177.38
2022-12-11T00:02:30.639Z,172.45
2022-12-11T00:04:59.095Z,167.10
2022-12-11T00:07:27.609Z,183.80
2022-12-11T00:09:56.121Z,153.02
2022-12-11T00:12:24.623Z,196.10
2022-12-11T00:14:53.448Z,178.07
2022-12-11T00:17:23.577Z,160.40
2022-12-11T00:19:52.338Z,180.18
2022-12-11T00:22:20.795Z,167.32
2022-12-11T00:24:49.293Z,157.07
2022-12-11T00:27:17.778Z,157.60
2022-12-11T00:29:46.543Z,166.50
2022-12-11T00:32:15.015Z,181.40
2022-12-11T00:34:45.007Z,169.50
2022-12-11T00:37:13.445Z,183.77
2022-12-11T00:39:41.866Z,186.32
2022-12-11T00:42:10.397Z,189.15
2022-12-11T00:44:38.940Z,189.40
2022-12-11T00:47:08.471Z,223.10
2022-12-11T00:49:37.163Z,227.45
2022-12-11T00:52:07.748Z,213.68
2022-12-11T00:54:36.444Z,178.02
2022-12-11T00:57:05.026Z,168.77
2022-12-11T00:59:33.574Z,166.85
2022-12-11T01:02:01.979Z,176.55
2022-12-11T01:04:30.621Z,169.00
2022-12-11T01:06:59.267Z,159.73
2022-12-11T01:09:46.563Z,170.80
2022-12-11T01:12:15.188Z,155.63
2022-12-11T01:14:43.678Z,143.98
2022-12-11T01:17:12.216Z,177.90
2022-12-11T01:19:40.659Z,162.63
2022-12-11T01:22:09.179Z,145.05
2022-12-11T01:24:39.138Z,179.13
2022-12-11T01:27:07.655Z,200.30
2022-12-11T01:29:36.077Z,175.23
2022-12-11T01:32:04.655Z,152.52
2022-12-11T01:34:34.321Z,189.07
2022-12-11T01:37:02.995Z,154.93
2022-12-11T01:39:31.905Z,134.82
2022-12-11T01:42:02.553Z,111.03
2022-12-11T01:45:27.111Z,115.55
2022-12-11T01:47:59.006Z,127.18
2022-12-11T01:50:27.703Z,100.30
2022-12-11T01:52:56.271Z,121.95
2022-12-11T01:55:25.047Z,113.00
2022-12-11T01:57:55.336Z,84.05
2022-12-11T02:00:23.975Z,81.90
2022-12-11T02:02:52.407Z,78.78
2022-12-11T02:05:21.192Z,68.10
2022-12-11T02:07:52.760Z,65.80
2022-12-11T02:10:21.709Z,67.32
2022-12-11T02:12:59.138Z,60.47
2022-12-11T02:15:34.112Z,57.53
2022-12-11T02:18:12.504Z,61.70
2022-12-11T02:20:43.446Z,74.80
2022-12-11T02:23:34.998Z,71.22
2022-12-11T02:26:13.513Z,72.10
2022-12-11T02:28:46.745Z,58.80
2022-12-11T02:31:19.299Z,67.28
2022-12-11T02:33:52.300Z,60.25
2022-12-11T02:36:21.563Z,61.65
2022-12-11T02:38:52.159Z,56.53
2022-12-11T02:41:22.622Z,57.45
2022-12-11T02:43:52.986Z,57.78
2022-12-11T02:46:22.817Z,54.15
2022-12-11T02:48:52.815Z,56.80
2022-12-11T02:51:25.032Z,58.70
2022-12-11T02:53:56.060Z,64.60
2022-12-11T02:56:28.269Z,63.33
2022-12-11T02:59:02.091Z,59.88
2022-12-11T03:01:30.777Z,69.03
2022-12-11T03:04:00.123Z,66.97
2022-12-11T03:06:30.735Z,75.55
2022-12-11T03:08:59.356Z,98.53
2022-12-11T03:11:27.866Z,64.15
2022-12-11T03:13:57.912Z,61.88
2022-12-11T03:16:30.946Z,68.03
2022-12-11T03:19:10.424Z,66.38
2022-12-11T03:21:44.843Z,86.30
2022-12-11T03:24:18.971Z,63.35
2022-12-11T03:26:56.212Z,70.57
2022-12-11T03:29:31.688Z,67.22
2022-12-11T03:32:03.857Z,71.00
2022-12-11T03:34:35.512Z,76.72
2022-12-11T03:37:05.546Z,90.85
2022-12-11T03:39:37.228Z,87.38
2022-12-11T03:42:09.145Z,87.05
2022-12-11T03:44:39.744Z,109.60
2022-12-11T03:47:10.102Z,90.18
2022-12-11T03:49:41.679Z,94.53
2022-12-11T03:52:11.669Z,117.68
2022-12-11T03:54:42.234Z,135.82
2022-12-11T03:57:15.299Z,105.38
2022-12-11T03:59:45.407Z,100.95
2022-12-11T04:02:13.914Z,89.20
2022-12-11T04:04:43.676Z,137.40
2022-12-11T04:07:12.280Z,110.57
2022-12-11T04:09:40.710Z,114.78
2022-12-11T04:12:09.252Z,96.97
2022-12-11T04:14:55.299Z,76.55
2022-12-11T04:17:42.436Z,83.93
2022-12-11T04:20:30.453Z,83.82
2022-12-11T04:23:16.432Z,77.20
2022-12-11T04:25:44.830Z,94.88
2022-12-11T04:28:13.175Z,94.85
2022-12-11T04:30:41.822Z,93.05
2022-12-11T04:33:11.804Z,76.30
2022-12-11T04:35:40.395Z,90.90
2022-12-11T04:38:08.756Z,92.15
2022-12-11T04:40:37.247Z,84.53
2022-12-11T04:43:05.696Z,92.70
2022-12-11T04:45:35.198Z,84.03
2022-12-11T04:48:03.608Z,87.13
2022-12-11T04:50:33.579Z,99.35
2022-12-11T04:53:02.050Z,102.28
2022-12-11T04:55:30.477Z,93.90
2022-12-11T04:57:59.152Z,96.93
2022-12-11T05:00:27.627Z,84.15
2022-12-11T05:02:56.144Z,84.47
2022-12-11T05:05:24.801Z,97.93
2022-12-11T05:07:54.957Z,114.68
2022-12-11T05:10:23.819Z,117.57
2022-12-11T05:12:52.253Z,131.63
2022-12-11T05:15:20.885Z,145.20
2022-12-11T05:17:49.544Z,142.52
2022-12-11T05:20:19.014Z,163.52
2022-12-11T05:22:47.751Z,142.32
2022-12-11T05:25:17.891Z,154.43
2022-12-11T05:27:46.366Z,140.75
2022-12-11T05:30:14.995Z,162.38
2022-12-11T05:32:43.558Z,188.02
2022-12-11T05:35:12.449Z,148.25
2022-12-11T05:37:41.048Z,136.65
2022-12-11T05:40:12.532Z,125.75
2022-12-11T05:42:42.623Z,115.30
2022-12-11T05:45:12.428Z,116.00
2022-12-11T05:47:41.062Z,129.57
2022-12-11T05:50:10.904Z,126.75
2022-12-11T05:52:39.434Z,127.77
2022-12-11T05:55:09.702Z,238.35
2022-12-11T05:57:38.430Z,154.85
2022-12-11T06:00:10.865Z,167.80
2022-12-11T06:02:39.525Z,170.90
2022-12-11T06:05:09.218Z,217.93
2022-12-11T06:07:38.041Z,169.40
2022-12-11T06:10:07.391Z,189.77
2022-12-11T06:12:36.336Z,182.98
2022-12-11T06:15:05.717Z,182.88
2022-12-11T06:17:35.886Z,216.80
2022-12-11T06:20:04.989Z,201.98
2022-12-11T06:22:33.465Z,222.53
2022-12-11T06:25:01.961Z,259.02
2022-12-11T06:27:30.983Z,207.77
2022-12-11T06:29:59.500Z,205.40
2022-12-11T06:32:28.178Z,188.10
2022-12-11T06:34:58.234Z,184.40
2022-12-11T06:37:27.295Z,226.85
2022-12-11T06:39:55.923Z,183.90
2022-12-11T06:42:24.494Z,179.25
2022-12-11T06:44:53.301Z,204.67
2022-12-11T06:47:21.807Z,218.23
2022-12-11T06:49:50.277Z,201.70
2022-12-11T06:52:20.182Z,209.95
2022-12-11T06:54:48.732Z,242.02
2022-12-11T06:57:17.458Z,269.25
2022-12-11T06:59:46.061Z,246.57
2022-12-11T07:02:15.476Z,262.67
2022-12-11T07:04:44.258Z,252.68
2022-12-11T07:07:13.268Z,262.53
2022-12-11T07:09:43.520Z,239.60
2022-12-11T07:12:12.142Z,213.02
2022-12-11T07:14:40.699Z,211.20
2022-12-11T07:17:09.168Z,198.68
2022-12-11T07:19:37.826Z,205.27
2022-12-11T07:22:06.229Z,206.95
2022-12-11T07:24:34.991Z,187.02
2022-12-11T07:27:05.131Z,215.17
2022-12-11T07:29:34.099Z,186.87
2022-12-11T07:32:03.105Z,230.80
2022-12-11T07:34:31.874Z,190.13
2022-12-11T07:37:00.659Z,189.87
2022-12-11T07:39:29.474Z,189.80
2022-12-11T07:41:58.508Z,187.97
2022-12-11T07:44:28.558Z,176.93
2022-12-11T07:46:57.290Z,180.13
2022-12-11T07:49:26.075Z,191.63
2022-12-11T07:52:32.462Z,168.55
2022-12-11T07:55:39.467Z,198.15
2022-12-11T07:58:08.243Z,186.43
2022-12-11T08:01:38.076Z,202.20
2022-12-11T08:07:52.234Z,157.25
2022-12-11T08:10:27.969Z,145.18
2022-12-11T08:13:58.810Z,138.55
2022-12-11T08:20:29.629Z,74.03
2022-12-11T08:24:03.113Z,63.03
2022-12-11T08:26:36.595Z,75.45
2022-12-11T08:29:11.070Z,67.22
2022-12-11T08:32:18.219Z,97.47
2022-12-11T08:38:32.715Z,70.20
2022-12-11T08:41:12.644Z,88.15
2022-12-11T08:43:58.023Z,84.03
2022-12-11T08:53:11.104Z,79.90
2022-12-11T08:59:20.148Z,66.82
2022-12-11T09:02:32.124Z,63.10
2022-12-11T09:05:10.237Z,82.68
2022-12-11T09:07:42.154Z,66.68
2022-12-11T09:10:12.794Z,58.85
2022-12-11T09:16:37.694Z,64.90
2022-12-11T09:19:19.247Z,66.78
2022-12-11T09:21:48.236Z,58.97
2022-12-11T09:24:19.949Z,67.82
2022-12-11T09:26:50.248Z,57.33
2022-12-11T09:29:19.150Z,50.25
2022-12-11T09:31:49.633Z,50.97
2022-12-11T09:34:18.187Z,73.90
2022-12-11T09:36:47.388Z,88.57
2022-12-11T09:39:17.754Z,61.25
2022-12-11T09:41:55.177Z,51.22
2022-12-11T09:44:34.423Z,95.38
2022-12-11T09:47:06.223Z,63.33
2022-12-11T09:49:39.930Z,57.92
2022-12-11T09:52:14.974Z,49.60
2022-12-11T09:54:54.710Z,52.20
2022-12-11T09:57:38.773Z,64.07
2022-12-11T10:00:25.694Z,54.33
2022-12-11T10:03:34.957Z,63.70
2022-12-11T10:06:07.992Z,53.10
2022-12-11T10:08:52.001Z,66.22
2022-12-11T10:11:45.562Z,54.13
2022-12-11T10:14:23.902Z,51.60
2022-12-11T10:16:54.302Z,62.08
2022-12-11T10:19:37.676Z,94.88
2022-12-11T10:22:14.115Z,51.88
2022-12-11T10:27:42.011Z,45.38
2022-12-11T10:30:18.294Z,49.35
2022-12-11T10:32:53.790Z,44.47
2022-12-11T10:35:30.658Z,52.20
2022-12-11T10:38:03.199Z,46.78
2022-12-11T10:40:33.354Z,44.28
2022-12-11T10:43:02.223Z,66.70
2022-12-11T10:45:32.122Z,42.25
2022-12-11T10:48:05.435Z,47.92
2022-12-11T10:50:34.657Z,41.85
2022-12-11T10:53:03.651Z,40.97
2022-12-11T10:55:41.349Z,41.40
2022-12-11T10:58:21.823Z,43.22
2022-12-11T11:01:12.153Z,44.42
2022-12-11T11:03:55.730Z,58.78
2022-12-11T11:06:34.527Z,42.10
2022-12-11T11:09:20.540Z,41.70
2022-12-11T11:11:52.651Z,43.90
2022-12-11T11:14:25.419Z,43.88
2022-12-11T11:16:59.539Z,69.03
2022-12-11T11:19:31.352Z,48.63
2022-12-11T11:22:02.510Z,44.00
2022-12-11T11:24:43.428Z,48.70
2022-12-11T11:27:27.607Z,46.42
2022-12-11T11:30:06.093Z,44.85
2022-12-11T11:32:38.902Z,42.40
2022-12-11T11:35:16.344Z,43.47
2022-12-11T11:37:53.393Z,70.22
2022-12-11T11:40:25.765Z,44.50
2022-12-11T11:43:02.862Z,43.05
2022-12-11T11:45:35.070Z,51.47
2022-12-11T11:48:17.609Z,52.47
2022-12-11T11:50:50.645Z,306.20
2022-12-11T11:53:22.461Z,54.80
2022-12-11T11:55:57.874Z,85.28
2022-12-11T11:58:36.149Z,48.28
2022-12-11T12:01:05.556Z,66.10
2022-12-11T12:03:53.339Z,69.20
2022-12-11T12:06:33.078Z,53.50
2022-12-11T12:09:14.788Z,49.58
2022-12-11T12:11:50.003Z,49.30
2022-12-11T12:14:57.803Z,45.22
2022-12-11T12:17:28.186Z,47.60
2022-12-11T12:20:27.554Z,48.53
2022-12-11T12:23:26.483Z,48.40
2022-12-11T12:26:03.740Z,46.47
2022-12-11T12:28:43.911Z,52.13
2022-12-11T12:31:26.089Z,70.75
2022-12-11T12:34:14.192Z,46.30
2022-12-11T12:36:54.079Z,45.50
2022-12-11T12:39:32.593Z,62.08
2022-12-11T12:42:12.841Z,69.03
2022-12-11T12:44:50.652Z,42.72
2022-12-11T12:47:21.236Z,46.85
2022-12-11T12:49:52.127Z,54.63
2022-12-11T12:52:25.216Z,46.63
2022-12-11T12:55:16.688Z,62.28
2022-12-11T12:57:48.801Z,42.47
2022-12-11T13:00:29.551Z,49.25
2022-12-11T13:02:59.016Z,49.03
2022-12-11T13:05:29.682Z,44.83
2022-12-11T13:08:01.785Z,43.22
2022-12-11T13:10:33.236Z,46.22
2022-12-11T13:13:02.901Z,47.85
2022-12-11T13:15:34.897Z,53.75
2022-12-11T13:18:05.091Z,45.33
2022-12-11T13:20:34.800Z,57.72
2022-12-11T13:23:19.038Z,67.93
2022-12-11T13:25:51.459Z,51.60
2022-12-11T13:28:28.912Z,88.05
2022-12-11T13:31:30.603Z,79.78
2022-12-11T13:34:04.765Z,57.25
2022-12-11T13:36:35.217Z,62.08
2022-12-11T13:39:07.573Z,64.65
2022-12-11T13:41:38.353Z,85.05
2022-12-11T13:44:07.334Z,90.32
2022-12-11T13:46:37.960Z,85.00
2022-12-11T13:49:07.615Z,74.47
2022-12-11T13:51:37.960Z,58.25
2022-12-11T13:54:18.754Z,66.90
2022-12-11T13:56:58.197Z,57.33
2022-12-11T13:59:29.512Z,74.32
2022-12-11T14:02:01.860Z,70.07
2022-12-11T14:04:31.412Z,247.77
2022-12-11T14:07:00.530Z,70.68
2022-12-11T14:09:30.709Z,131.60
2022-12-11T14:11:59.461Z,139.95
2022-12-11T14:14:41.881Z,74.18
2022-12-11T14:17:13.774Z,122.03
2022-12-11T14:19:48.272Z,280.75
2022-12-11T14:22:22.882Z,114.55
2022-12-11T14:24:55.563Z,75.57
2022-12-11T14:27:24.419Z,113.35
2022-12-11T14:29:52.929Z,88.55
2022-12-11T14:32:26.281Z,94.82
2022-12-11T14:34:56.819Z,79.68
2022-12-11T14:37:25.991Z,98.18
2022-12-11T14:39:59.553Z,95.38
2022-12-11T14:42:30.573Z,66.43
2022-12-11T14:45:02.138Z,74.15
2022-12-11T14:47:33.781Z,68.55
2022-12-11T14:50:05.148Z,84.47
2022-12-11T14:52:37.248Z,92.90
2022-12-11T14:55:10.744Z,130.40
2022-12-11T14:57:42.009Z,114.90
2022-12-11T15:00:21.566Z,158.75
2022-12-11T15:02:59.563Z,149.32
2022-12-11T15:05:28.348Z,124.35
2022-12-11T15:07:59.822Z,135.00
2022-12-11T15:10:35.543Z,145.73
2022-12-11T15:13:05.203Z,248.30
2022-12-11T15:15:38.577Z,170.38
2022-12-11T15:18:09.699Z,160.55
2022-12-11T15:20:38.341Z,142.38
2022-12-11T15:23:31.395Z,174.50
2022-12-11T15:27:05.108Z,165.65
2022-12-11T15:40:34.849Z,232.18
2022-12-11T15:43:05.319Z,191.15
2022-12-11T15:45:33.988Z,165.02
2022-12-11T15:48:05.918Z,154.38
2022-12-11T15:50:45.176Z,148.27
2022-12-11T15:53:13.866Z,207.63
2022-12-11T15:55:45.314Z,171.52
2022-12-11T15:58:18.331Z,162.32
2022-12-11T16:00:47.279Z,263.55
2022-12-11T16:03:19.235Z,164.57
2022-12-11T16:05:48.615Z,167.27
2022-12-11T16:08:19.322Z,158.15
2022-12-11T16:10:49.773Z,149.35
2022-12-11T16:13:18.358Z,165.23
2022-12-11T16:15:48.678Z,168.82
2022-12-11T16:18:20.467Z,188.02
2022-12-11T16:20:51.414Z,170.68
2022-12-11T16:23:20.610Z,183.18
2022-12-11T16:25:51.326Z,243.77
2022-12-11T16:28:22.670Z,165.95
2022-12-11T16:30:51.167Z,164.60
2022-12-11T16:33:19.760Z,188.45
2022-12-11T16:35:48.347Z,175.85
2022-12-11T16:38:17.097Z,222.32
2022-12-11T16:48:52.660Z,158.20
2022-12-11T16:51:21.257Z,170.30
2022-12-11T16:53:50.219Z,172.00
2022-12-11T16:59:03.117Z,208.30
2022-12-11T17:01:34.306Z,173.40
2022-12-11T17:04:04.307Z,183.95
2022-12-11T17:06:33.499Z,183.15
2022-12-11T17:09:03.110Z,186.45
2022-12-11T17:11:32.235Z,177.93
2022-12-11T17:14:01.770Z,225.38
2022-12-11T17:16:31.289Z,162.20
2022-12-11T17:19:00.388Z,181.32
2022-12-11T17:21:30.642Z,202.45
2022-12-11T17:23:59.558Z,208.05
2022-12-11T17:26:28.952Z,223.40
2022-12-11T17:28:58.623Z,181.23
2022-12-11T17:31:27.635Z,165.82
2022-12-11T17:33:57.618Z,170.95
2022-12-11T17:36:26.278Z,181.60
2022-12-11T17:38:56.556Z,166.90
2022-12-11T17:41:25.846Z,230.32
2022-12-11T17:43:55.751Z,212.75
2022-12-11T17:46:27.507Z,177.55
2022-12-11T17:48:56.588Z,181.70
2022-12-11T17:51:29.495Z,184.18
2022-12-11T17:54:01.103Z,168.43
2022-12-11T17:56:38.495Z,171.07
2022-12-11T17:59:23.917Z,194.27
2022-12-11T18:01:58.910Z,204.80
2022-12-11T18:04:28.031Z,163.23
2022-12-11T18:06:57.144Z,212.88
2022-12-11T18:09:27.633Z,179.20
2022-12-11T18:11:56.453Z,173.70
2022-12-11T18:14:25.610Z,187.10
2022-12-11T18:16:54.318Z,193.48
2022-12-11T18:19:23.392Z,207.98
2022-12-11T18:21:51.976Z,267.33
2022-12-11T18:24:20.701Z,262.48
2022-12-11T18:26:50.993Z,234.38
2022-12-11T18:29:19.708Z,240.77
2022-12-11T18:31:48.391Z,242.98
2022-12-11T18:34:17.070Z,198.60
2022-12-11T18:36:45.630Z,171.43
2022-12-11T18:39:14.415Z,201.10
2022-12-11T18:41:43.109Z,173.70
2022-12-11T18:44:13.247Z,170.68
2022-12-11T18:46:41.933Z,183.77
2022-12-11T18:49:10.630Z,148.77
2022-12-11T18:51:39.344Z,139.20
2022-12-11T18:54:09.704Z,185.68
2022-12-11T18:56:38.751Z,172.43
2022-12-11T18:59:07.350Z,161.07
2022-12-11T19:01:37.473Z,144.65
2022-12-11T19:04:10.799Z,190.43
2022-12-11T19:06:40.018Z,185.57
2022-12-11T19:09:10.537Z,217.05
2022-12-11T19:11:41.112Z,170.55
2022-12-11T19:14:11.189Z,193.30
2022-12-11T19:16:42.466Z,182.75
2022-12-11T19:19:14.390Z,171.32
2022-12-11T19:21:43.451Z,200.90
2022-12-11T19:24:15.107Z,175.55
2022-12-11T19:26:43.823Z,180.38
2022-12-11T19:29:13.443Z,190.07
2022-12-11T19:31:43.749Z,173.93
2022-12-11T19:34:12.412Z,205.32
2022-12-11T19:36:40.919Z,198.80
2022-12-11T19:39:13.013Z,196.48
2022-12-11T19:41:42.853Z,184.77
2022-12-11T19:44:11.620Z,171.50
2022-12-11T19:46:41.997Z,209.75
2022-12-11T19:49:11.677Z,184.93
2022-12-11T19:51:42.124Z,301.98
2022-12-11T19:54:14.265Z,191.32
2022-12-11T19:56:43.001Z,208.52
2022-12-11T19:59:14.064Z,206.82
2022-12-11T20:01:46.726Z,249.00
2022-12-11T20:04:16.948Z,199.20
2022-12-11T20:06:47.186Z,210.57
2022-12-11T20:09:16.567Z,221.75
2022-12-11T20:11:47.324Z,214.55
2022-12-11T20:14:20.899Z,215.70
2022-12-11T20:17:10.894Z,195.85
2022-12-11T20:19:39.766Z,206.15
2022-12-11T20:22:09.251Z,209.18
2022-12-11T20:24:38.547Z,257.58
2022-12-11T20:27:07.437Z,210.95
2022-12-11T20:29:35.875Z,223.13
2022-12-11T20:32:11.471Z,239.27
2022-12-11T20:34:41.323Z,244.85
2022-12-11T20:37:12.568Z,213.60
2022-12-11T20:39:41.416Z,290.52
2022-12-11T20:42:13.286Z,234.50
2022-12-11T20:44:47.351Z,254.20
2022-12-11T20:47:20.829Z,272.70
2022-12-11T20:49:50.546Z,257.88
2022-12-11T20:52:20.469Z,243.57
2022-12-11T20:54:51.172Z,227.90
2022-12-11T20:57:20.570Z,229.50
2022-12-11T20:59:49.630Z,236.30
2022-12-11T21:02:20.232Z,217.57
2022-12-11T21:04:49.848Z,197.23
2022-12-11T21:07:18.668Z,185.80
2022-12-11T21:09:50.258Z,201.80
2022-12-11T21:12:19.210Z,197.77
2022-12-11T21:14:48.817Z,214.70
2022-12-11T21:17:19.227Z,180.60
2022-12-11T21:19:48.145Z,201.48
2022-12-11T21:22:19.206Z,241.50
2022-12-11T21:24:47.999Z,194.43
2022-12-11T21:27:16.732Z,210.93
2022-12-11T21:29:45.543Z,180.63
2022-12-11T21:32:14.301Z,191.65
2022-12-11T21:34:44.705Z,188.38
2022-12-11T21:37:13.352Z,189.30
2022-12-11T21:39:42.065Z,185.88
2022-12-11T21:42:10.671Z,196.98
2022-12-11T21:47:30.762Z,190.63
2022-12-11T21:50:01.029Z,243.48
2022-12-11T21:52:31.334Z,200.07
2022-12-11T21:55:05.511Z,218.32
2022-12-11T21:57:34.384Z,192.40
2022-12-11T22:00:04.435Z,188.82
2022-12-11T22:02:37.579Z,186.50
2022-12-11T22:05:21.100Z,208.55
2022-12-11T22:07:57.511Z,222.90
2022-12-11T22:10:49.687Z,193.82
2022-12-11T22:13:23.328Z,209.32
2022-12-11T22:16:17.224Z,198.60
2022-12-11T22:18:58.950Z,223.98
2022-12-11T22:21:29.292Z,206.05
2022-12-11T22:24:00.085Z,207.45
2022-12-11T22:26:33.610Z,205.98
2022-12-11T22:29:02.384Z,242.68
2022-12-11T22:31:32.439Z,184.27
2022-12-11T22:34:01.529Z,207.77
2022-12-11T22:36:33.122Z,190.75
2022-12-11T22:39:02.239Z,234.73
2022-12-11T22:41:33.304Z,275.60
2022-12-11T22:44:02.350Z,220.80
2022-12-11T22:46:32.394Z,233.60
2022-12-11T22:49:01.285Z,194.23
2022-12-11T22:51:31.293Z,219.48
2022-12-11T22:54:00.275Z,200.45
2022-12-11T22:56:28.833Z,207.75
2022-12-11T22:58:58.323Z,193.00
2022-12-11T23:01:28.170Z,175.35
2022-12-11T23:03:56.679Z,187.95
2022-12-11T23:06:26.508Z,171.35
2022-12-11T23:08:59.201Z,148.68
2022-12-11T23:11:29.845Z,141.38
2022-12-11T23:13:59.006Z,126.68
2022-12-11T23:16:28.437Z,124.03
2022-12-11T23:18:57.789Z,113.82
2022-12-11T23:21:27.491Z,119.38
2022-12-11T23:23:57.967Z,134.25
2022-12-11T23:26:27.569Z,131.00
2022-12-11T23:28:56.889Z,125.38
2022-12-11T23:31:26.394Z,116.68
2022-12-11T23:33:55.352Z,118.10
2022-12-11T23:36:23.932Z,113.95
2022-12-11T23:38:54.792Z,129.00
2022-12-11T23:41:25.893Z,127.47
2022-12-11T23:43:54.687Z,120.75
2022-12-11T23:46:25.399Z,124.15
2022-12-11T23:48:54.918Z,149.25
2022-12-11T23:51:24.895Z,163.15
2022-12-11T23:53:53.898Z,135.90
2022-12-11T23:56:25.624Z,202.65
2022-12-11T23:58:54.481Z,184.82
